Terminal Aerodrome Forecast
Issued by NWS Wichita, KS

Home | Current Version | Previous Version | Graphics & Text | Print | Product List | Glossary On
Versions: 1 2 3 4 5 6 7 8 9 10 11 12 13 14 15 16 17 18 19 20 21
000
FTUS43 KICT 301147
TAFICT
TAF
KICT 301147Z 3012/0112 VRB06KT 5SM -DZ BR VCSH OVC008
      TEMPO 3014/3016 SCT008 OVC015
     FM301600 22009KT P6SM VCSH OVC020
     FM302100 26014G22KT P6SM VCSH OVC025
     FM010200 29019G28KT P6SM OVC015=

USA.gov is the U.S. government's official web portal to all federal, state and local government web resources and services.